KMVN/MVN METAR and TAF weather

Enter ICAO airport designator
Station Type Date Time Source
KMVN METAR 2024/02/26 18:56 UTC NOAA

KMVN 261856Z AUTO 17013KT 10SM CLR 24/06 A2977 RMK AO2 SLP084 T02390056


Station Type Date Time Source
KMVN Decoded METAR 2024/02/26 18:56 UTC NOAA

Mount Vernon, Mount Vernon Airport, IL, United States (KMVN) 38-19N 088-52W
Feb 26, 2024 - 01:56 PM EST / 2024.02.26 1856 UTC
Wind: from the S (170 degrees) at 15 MPH (13 KT):0
Visibility: 10 mile(s):0
Sky conditions: clear
Temperature: 75.0 F (23.9 C)
Dew Point: 42.1 F (5.6 C)
Relative Humidity: 30%
Pressure (altimeter): 29.77 in. Hg (1008 hPa)
ob: KMVN 261856Z AUTO 17013KT 10SM CLR 24/06 A2977 RMK AO2 SLP084 T02390056
cycle: 19

Station Type Date Time Source
KMVN TAF 2024/02/26 18:21 UTC NOAA